createdAt,value
2019-02-24T00:02:52.472Z,9.57
2019-02-24T00:05:56.363Z,10.10
2019-02-24T00:09:00.188Z,10.00
2019-02-24T00:12:04.088Z,10.93
2019-02-24T00:15:08.117Z,11.20
2019-02-24T00:18:11.931Z,11.90
2019-02-24T00:21:15.806Z,11.00
2019-02-24T00:24:19.745Z,10.80
2019-02-24T00:27:23.577Z,11.07
2019-02-24T00:30:27.413Z,11.87
2019-02-24T00:33:31.250Z,11.73
2019-02-24T00:36:35.099Z,11.70
2019-02-24T00:39:38.952Z,11.73
2019-02-24T00:42:42.783Z,11.87
2019-02-24T00:45:46.614Z,13.77
2019-02-24T00:48:50.451Z,12.10
2019-02-24T00:51:54.272Z,11.07
2019-02-24T00:54:58.073Z,11.77
2019-02-24T00:58:01.902Z,11.90
2019-02-24T01:01:05.723Z,11.97
2019-02-24T01:04:09.677Z,11.83
2019-02-24T01:07:13.564Z,11.60
2019-02-24T01:10:17.410Z,10.90
2019-02-24T01:13:21.341Z,10.20
2019-02-24T01:16:25.252Z,10.67
2019-02-24T01:19:29.105Z,9.37
2019-02-24T01:22:32.937Z,10.17
2019-02-24T01:25:36.843Z,10.17
2019-02-24T01:28:40.698Z,10.60
2019-02-24T01:31:44.514Z,10.60
2019-02-24T01:34:48.361Z,10.27
2019-02-24T01:37:52.270Z,11.00
2019-02-24T01:40:56.072Z,10.40
2019-02-24T01:43:59.893Z,11.00
2019-02-24T01:47:03.689Z,10.77
2019-02-24T01:50:08.452Z,11.67
2019-02-24T01:53:12.254Z,10.23
2019-02-24T01:56:16.103Z,9.80
2019-02-24T01:59:19.954Z,10.43
2019-02-24T02:02:23.840Z,11.13
2019-02-24T02:05:27.693Z,10.10
2019-02-24T02:08:31.590Z,10.20
2019-02-24T02:11:35.425Z,10.07
2019-02-24T02:14:39.323Z,10.30
2019-02-24T02:17:43.178Z,9.83
2019-02-24T02:20:47.130Z,9.93
2019-02-24T02:23:50.924Z,10.27
2019-02-24T02:26:55.319Z,9.83
2019-02-24T02:29:59.141Z,10.73
2019-02-24T02:33:02.969Z,10.67
2019-02-24T02:36:06.808Z,10.33
2019-02-24T02:39:10.609Z,9.60
2019-02-24T02:42:14.431Z,10.70
2019-02-24T02:45:18.309Z,9.80
2019-02-24T02:48:22.209Z,10.70
2019-02-24T02:51:26.070Z,10.47
2019-02-24T02:54:29.891Z,10.03
2019-02-24T02:57:33.782Z,10.80
2019-02-24T03:00:37.622Z,10.50
2019-02-24T03:03:41.446Z,10.67
2019-02-24T03:06:53.140Z,10.13
2019-02-24T03:09:57.030Z,10.93
2019-02-24T03:13:00.863Z,10.27
2019-02-24T03:16:04.833Z,10.37
2019-02-24T03:19:08.715Z,10.53
2019-02-24T03:22:12.563Z,11.03
2019-02-24T03:25:16.384Z,11.13
2019-02-24T03:28:20.299Z,10.73
2019-02-24T03:31:24.114Z,10.50
2019-02-24T03:34:27.937Z,11.13
2019-02-24T03:37:31.855Z,10.87
2019-02-24T03:40:35.944Z,10.90
2019-02-24T03:43:39.844Z,9.80
2019-02-24T03:46:43.753Z,10.83
2019-02-24T03:49:47.546Z,10.47
2019-02-24T03:52:51.451Z,9.60
2019-02-24T03:55:57.530Z,10.37
2019-02-24T03:59:01.166Z,9.77
2019-02-24T04:02:05.034Z,10.27
2019-02-24T04:05:08.995Z,10.50
2019-02-24T04:08:12.817Z,10.87
2019-02-24T04:11:16.692Z,10.50
2019-02-24T04:14:20.552Z,10.03
2019-02-24T04:17:25.756Z,10.50
2019-02-24T04:20:29.541Z,9.87
2019-02-24T04:23:33.482Z,10.40
2019-02-24T04:26:37.300Z,10.20
2019-02-24T04:29:41.178Z,10.40
2019-02-24T04:32:44.961Z,10.80
2019-02-24T04:35:48.823Z,10.70
2019-02-24T04:38:52.661Z,10.77
2019-02-24T04:41:56.520Z,10.77
2019-02-24T04:45:00.316Z,9.90
2019-02-24T04:48:04.287Z,11.17
2019-02-24T04:51:08.148Z,11.73
2019-02-24T04:54:11.969Z,11.23
2019-02-24T04:57:15.883Z,11.57
2019-02-24T05:00:19.722Z,11.60
2019-02-24T05:03:23.621Z,10.87
2019-02-24T05:06:27.458Z,10.80
2019-02-24T05:09:31.299Z,10.50
2019-02-24T05:12:35.109Z,10.77
2019-02-24T05:15:38.967Z,11.40
2019-02-24T05:18:42.807Z,10.90
2019-02-24T05:21:46.689Z,10.50
2019-02-24T05:24:50.498Z,9.97
2019-02-24T05:27:54.446Z,10.60
2019-02-24T05:30:58.347Z,11.30
2019-02-24T05:34:02.189Z,10.43
2019-02-24T05:37:06.044Z,10.37
2019-02-24T05:40:10.006Z,10.27
2019-02-24T05:43:13.848Z,10.13
2019-02-24T05:46:17.675Z,10.47
2019-02-24T05:49:21.518Z,10.43
2019-02-24T05:52:25.352Z,9.63
2019-02-24T05:55:29.175Z,10.23
2019-02-24T05:58:32.977Z,10.47
2019-02-24T06:01:36.842Z,10.47
2019-02-24T06:04:40.667Z,11.20
2019-02-24T06:07:44.554Z,10.63
2019-02-24T06:10:48.428Z,10.93
2019-02-24T06:13:52.301Z,10.87
2019-02-24T06:16:56.088Z,11.10
2019-02-24T06:19:59.937Z,10.63
2019-02-24T06:23:03.775Z,11.27
2019-02-24T06:26:07.644Z,12.10
2019-02-24T06:29:11.464Z,10.20
2019-02-24T06:32:15.282Z,10.80
2019-02-24T06:35:19.218Z,11.20
2019-02-24T06:38:23.112Z,11.37
2019-02-24T06:41:26.932Z,10.90
2019-02-24T06:44:30.781Z,12.63
2019-02-24T06:47:34.605Z,12.30
2019-02-24T06:50:52.935Z,12.63
2019-02-24T06:53:56.827Z,12.27
2019-02-24T06:57:00.689Z,12.77
2019-02-24T07:00:13.556Z,12.33
2019-02-24T07:03:10.343Z,12.13
2019-02-24T07:06:14.227Z,12.20
2019-02-24T07:09:19.146Z,12.17
2019-02-24T07:12:23.107Z,12.13
2019-02-24T07:15:26.901Z,12.77
2019-02-24T07:18:30.758Z,12.43
2019-02-24T07:21:34.672Z,13.13
2019-02-24T07:24:38.498Z,12.23
2019-02-24T07:27:42.375Z,12.93
2019-02-24T07:30:46.243Z,13.10
2019-02-24T07:33:50.343Z,13.47
2019-02-24T07:36:54.177Z,12.63
2019-02-24T07:40:00.761Z,11.97
2019-02-24T07:43:04.833Z,12.70
2019-02-24T07:46:11.968Z,11.87
2019-02-24T07:49:15.921Z,12.37
2019-02-24T07:52:25.417Z,13.10
2019-02-24T07:55:32.535Z,12.47
2019-02-24T07:58:42.592Z,13.60
2019-02-24T08:01:42.680Z,12.70
2019-02-24T08:04:46.690Z,12.47
2019-02-24T08:07:50.667Z,12.70
2019-02-24T08:10:54.611Z,12.63
2019-02-24T08:13:58.435Z,13.87
2019-02-24T08:17:05.395Z,14.50
2019-02-24T08:20:16.088Z,13.50
2019-02-24T08:23:20.607Z,13.67
2019-02-24T08:26:28.330Z,13.77
2019-02-24T08:29:33.313Z,12.07
2019-02-24T08:32:40.125Z,13.90
2019-02-24T09:00:16.081Z,14.83
2019-02-24T09:06:57.961Z,14.70
2019-02-24T09:10:02.834Z,15.50
2019-02-24T09:13:06.919Z,15.03
2019-02-24T09:16:10.812Z,15.93
2019-02-24T09:19:14.775Z,17.40
2019-02-24T09:22:19.229Z,16.53
2019-02-24T09:25:23.139Z,15.27
2019-02-24T09:28:28.915Z,15.33
2019-02-24T09:31:32.798Z,16.07
2019-02-24T09:34:36.727Z,16.40
2019-02-24T09:37:40.813Z,16.97
2019-02-24T09:40:44.703Z,17.33
2019-02-24T09:43:48.577Z,16.33
2019-02-24T09:46:53.280Z,16.50
2019-02-24T09:49:57.078Z,16.57
2019-02-24T09:53:00.986Z,16.73
2019-02-24T09:56:04.854Z,17.37
2019-02-24T09:59:08.692Z,15.87
2019-02-24T10:02:12.683Z,16.07
2019-02-24T10:05:16.677Z,17.33
2019-02-24T10:08:20.582Z,16.93
2019-02-24T10:11:24.552Z,17.37
2019-02-24T10:14:28.470Z,16.50
2019-02-24T10:17:32.370Z,16.93
2019-02-24T10:20:36.284Z,16.93
2019-02-24T10:23:40.165Z,16.93
2019-02-24T10:26:44.074Z,16.97
2019-02-24T10:29:47.924Z,17.20
2019-02-24T10:32:52.527Z,17.67
2019-02-24T10:35:56.455Z,18.97
2019-02-24T10:39:00.305Z,17.50
2019-02-24T10:42:04.155Z,19.80
2019-02-24T10:45:10.002Z,19.23
2019-02-24T10:48:14.466Z,19.03
2019-02-24T10:51:18.343Z,19.17
2019-02-24T10:54:22.140Z,17.80
2019-02-24T10:57:25.972Z,18.07
2019-02-24T11:00:29.862Z,18.40
2019-02-24T11:03:35.453Z,18.93
2019-02-24T11:06:39.239Z,17.70
2019-02-24T11:09:43.059Z,18.73
2019-02-24T11:12:46.888Z,18.77
2019-02-24T11:15:50.726Z,18.07
2019-02-24T11:18:54.526Z,19.10
2019-02-24T11:21:58.428Z,17.57
2019-02-24T11:25:02.258Z,17.73
2019-02-24T11:28:06.142Z,17.13
2019-02-24T11:31:14.158Z,19.33
2019-02-24T11:34:23.439Z,19.00
2019-02-24T11:37:52.978Z,18.90
2019-02-24T11:40:59.080Z,18.57
2019-02-24T11:44:04.029Z,18.27
2019-02-24T11:47:12.607Z,20.63
2019-02-24T11:50:18.061Z,18.60
2019-02-24T11:53:23.517Z,18.10
2019-02-24T11:56:28.863Z,18.80
2019-02-24T11:59:34.498Z,19.73
2019-02-24T12:02:41.726Z,19.80
2019-02-24T12:05:47.094Z,19.23
2019-02-24T12:08:52.007Z,18.43
2019-02-24T12:11:57.244Z,19.53
2019-02-24T12:15:03.003Z,18.10
2019-02-24T12:18:08.389Z,18.07
2019-02-24T12:21:18.825Z,18.20
2019-02-24T12:24:24.285Z,18.43
2019-02-24T12:27:29.493Z,17.47
2019-02-24T12:30:34.890Z,18.53
2019-02-24T12:33:40.511Z,19.47
2019-02-24T12:36:45.578Z,19.37
2019-02-24T12:39:50.421Z,17.97
2019-02-24T12:42:54.904Z,19.50
2019-02-24T12:46:04.040Z,20.73
2019-02-24T12:49:09.788Z,20.40
2019-02-24T12:52:15.333Z,19.60
2019-02-24T12:55:20.841Z,19.00
2019-02-24T12:58:25.991Z,17.33
2019-02-24T13:01:31.526Z,17.67
2019-02-24T13:04:38.335Z,18.67
2019-02-24T13:07:43.500Z,18.63
2019-02-24T13:10:48.825Z,19.47
2019-02-24T13:13:54.270Z,18.67
2019-02-24T13:16:59.636Z,17.00
2019-02-24T13:20:04.673Z,17.17
2019-02-24T13:23:11.541Z,17.33
2019-02-24T13:26:16.992Z,17.53
2019-02-24T13:29:20.944Z,17.37
2019-02-24T13:32:27.080Z,17.97
2019-02-24T13:35:30.937Z,19.70
2019-02-24T13:38:34.784Z,18.67
2019-02-24T13:41:38.682Z,18.33
2019-02-24T13:44:42.491Z,18.07
2019-02-24T13:47:46.499Z,17.50
2019-02-24T13:50:50.419Z,17.93
2019-02-24T13:53:54.241Z,17.63
2019-02-24T13:56:58.136Z,17.40
2019-02-24T14:00:01.996Z,15.10
2019-02-24T14:03:05.832Z,17.50
2019-02-24T14:06:09.644Z,17.43
2019-02-24T14:09:13.831Z,17.73
2019-02-24T14:12:17.721Z,18.40
2019-02-24T14:15:21.609Z,19.10
2019-02-24T14:18:25.526Z,16.47
2019-02-24T14:21:29.461Z,19.17
2019-02-24T14:24:33.310Z,19.13
2019-02-24T14:27:37.352Z,18.77
2019-02-24T14:30:41.209Z,19.23
2019-02-24T14:33:45.025Z,17.63
2019-02-24T14:36:48.846Z,19.33
2019-02-24T14:39:52.703Z,19.50
2019-02-24T14:42:56.561Z,20.23
2019-02-24T14:46:00.498Z,20.07
2019-02-24T14:49:04.411Z,18.57
2019-02-24T14:52:08.273Z,19.80
2019-02-24T14:55:12.353Z,19.07
2019-02-24T14:58:16.296Z,20.00
2019-02-24T15:01:20.181Z,20.20
2019-02-24T15:04:24.016Z,19.00
2019-02-24T15:07:27.846Z,31.53
2019-02-24T15:10:31.682Z,19.37
2019-02-24T15:13:35.507Z,28.47
2019-02-24T15:16:40.297Z,26.73
2019-02-24T15:19:44.141Z,30.40
2019-02-24T15:22:47.948Z,19.23
2019-02-24T15:25:51.868Z,24.30
2019-02-24T15:28:55.728Z,35.20
2019-02-24T15:31:59.545Z,23.63
2019-02-24T15:35:03.367Z,21.30
2019-02-24T15:38:07.342Z,22.57
2019-02-24T15:41:11.162Z,20.37
2019-02-24T15:44:14.990Z,28.80
2019-02-24T15:47:18.801Z,18.07
2019-02-24T15:50:22.713Z,18.87
2019-02-24T15:53:26.523Z,17.97
2019-02-24T15:56:31.097Z,20.80
2019-02-24T15:59:34.908Z,46.63
2019-02-24T16:02:38.711Z,30.03
2019-02-24T16:05:42.587Z,44.57
2019-02-24T16:08:46.394Z,37.80
2019-02-24T16:11:50.202Z,56.83
2019-02-24T16:14:54.031Z,42.23
2019-02-24T16:17:57.877Z,41.43
2019-02-24T16:21:01.683Z,32.57
2019-02-24T16:24:05.661Z,47.83
2019-02-24T16:27:09.452Z,31.20
2019-02-24T16:30:13.465Z,21.50
2019-02-24T16:33:17.278Z,20.93
2019-02-24T16:36:21.109Z,48.53
2019-02-24T16:39:24.946Z,86.90
2019-02-24T16:42:28.766Z,56.37
2019-02-24T16:45:32.661Z,57.20
2019-02-24T16:48:36.813Z,62.73
2019-02-24T16:51:40.634Z,53.17
2019-02-24T16:54:52.496Z,27.17
2019-02-24T16:57:50.055Z,60.87
2019-02-24T17:00:53.876Z,26.50
2019-02-24T17:03:57.682Z,39.27
2019-02-24T17:07:01.626Z,43.17
2019-02-24T17:10:06.017Z,27.93
2019-02-24T17:13:09.853Z,39.23
2019-02-24T17:16:13.825Z,30.60
2019-02-24T17:19:17.638Z,35.17
2019-02-24T17:22:21.444Z,27.07
2019-02-24T17:25:25.401Z,27.10
2019-02-24T17:28:29.322Z,25.17
2019-02-24T17:31:33.157Z,24.67
2019-02-24T17:34:37.014Z,23.43
2019-02-24T17:37:40.975Z,25.47
2019-02-24T17:40:44.827Z,30.20
2019-02-24T17:43:48.664Z,30.93
2019-02-24T17:46:52.530Z,35.77
2019-02-24T17:49:56.331Z,68.20
2019-02-24T17:53:00.177Z,43.57
2019-02-24T17:56:04.006Z,40.07
2019-02-24T17:59:07.834Z,37.23
2019-02-24T18:02:11.682Z,49.97
2019-02-24T18:05:15.568Z,45.07
2019-02-24T18:08:27.899Z,32.17
2019-02-24T18:11:26.155Z,30.37
2019-02-24T18:14:29.968Z,27.67
2019-02-24T18:17:34.230Z,26.30
2019-02-24T18:20:38.104Z,26.53
2019-02-24T18:23:41.960Z,25.37
2019-02-24T18:26:46.071Z,26.40
2019-02-24T18:29:49.934Z,24.13
2019-02-24T18:32:54.047Z,24.23
2019-02-24T18:35:57.863Z,21.93
2019-02-24T18:39:01.687Z,23.07
2019-02-24T18:42:05.681Z,23.20
2019-02-24T18:45:10.087Z,26.90
2019-02-24T18:48:14.043Z,35.13
2019-02-24T18:51:17.850Z,27.20
2019-02-24T18:54:21.873Z,25.03
2019-02-24T18:57:25.692Z,23.27
2019-02-24T19:00:29.613Z,22.50
2019-02-24T19:03:33.549Z,23.63
2019-02-24T19:06:39.405Z,22.33
2019-02-24T19:09:43.002Z,24.10
2019-02-24T19:12:47.006Z,23.37
2019-02-24T19:15:51.445Z,23.57
2019-02-24T19:18:55.309Z,24.07
2019-02-24T19:21:59.255Z,26.20
2019-02-24T19:25:03.653Z,25.87
2019-02-24T19:28:07.575Z,28.73
2019-02-24T19:31:11.430Z,36.83
2019-02-24T19:34:15.188Z,29.73
2019-02-24T19:37:19.047Z,29.07
2019-02-24T19:40:23.355Z,27.43
2019-02-24T19:43:27.525Z,26.27
2019-02-24T19:46:31.638Z,25.87
2019-02-24T19:49:35.699Z,27.50
2019-02-24T19:52:39.783Z,26.60
2019-02-24T19:55:43.925Z,25.70
2019-02-24T19:58:49.115Z,25.10
2019-02-24T20:01:53.131Z,25.33
2019-02-24T20:04:57.156Z,23.77
2019-02-24T20:08:01.110Z,23.57
2019-02-24T20:11:05.364Z,24.83
2019-02-24T20:14:09.473Z,24.90
2019-02-24T20:17:13.816Z,25.93
2019-02-24T20:20:20.207Z,24.80
2019-02-24T20:23:24.310Z,25.27
2019-02-24T20:26:28.385Z,24.17
2019-02-24T20:29:33.485Z,23.10
2019-02-24T20:32:37.505Z,25.77
2019-02-24T20:35:41.554Z,64.20
2019-02-24T20:38:45.671Z,33.97
2019-02-24T20:41:50.451Z,32.47
2019-02-24T20:44:56.030Z,35.70
2019-02-24T20:48:00.397Z,65.80
2019-02-24T20:51:04.854Z,46.70
2019-02-24T20:54:10.266Z,33.47
2019-02-24T20:57:17.371Z,40.80
2019-02-24T21:00:24.315Z,29.37
2019-02-24T21:03:28.643Z,26.97
2019-02-24T21:06:33.413Z,26.37
2019-02-24T21:09:37.780Z,24.67
2019-02-24T21:12:41.922Z,26.23
2019-02-24T21:15:46.307Z,28.27
2019-02-24T21:19:03.574Z,26.73
2019-02-24T21:22:07.975Z,25.40
2019-02-24T21:25:12.287Z,25.90
2019-02-24T21:28:16.715Z,26.33
